Time;durP1;ratioP1;P1;durP2;ratioP2;P2;SDS_P1;SDS_P2;PMS_P1;PMS_P2;Temp;Humidity;BMP_temperature;BMP_pressure;BME280_temperature;BME280_humidity;BME280_pressure;Samples;Min_cycle;Max_cycle;Signal;HPM_P1;HPM_P2
2022/03/05 00:00:18;;;;;;;6.00;4.43;;;0.20;99.90;;;;;;5007959;28;20180;-76
2022/03/05 00:02:43;;;;;;;8.67;5.03;;;0.10;99.90;;;;;;5005793;28;20568;-78
2022/03/05 00:05:13;;;;;;;6.90;4.40;;;0.00;99.90;;;;;;5006462;28;20188;-77
2022/03/05 00:07:40;;;;;;;7.97;5.60;;;0.00;99.90;;;;;;5002373;28;20385;-81
2022/03/05 00:10:05;;;;;;;6.40;4.43;;;-0.10;99.90;;;;;;4998591;28;20318;-79
2022/03/05 00:12:31;;;;;;;7.77;4.37;;;-0.10;99.90;;;;;;4999732;28;20215;-77
2022/03/05 00:14:57;;;;;;;9.60;4.80;;;-0.20;99.90;;;;;;5000464;28;20203;-78
2022/03/05 00:17:23;;;;;;;9.70;5.33;;;-0.20;99.90;;;;;;5000779;28;20572;-77
2022/03/05 00:19:48;;;;;;;8.27;5.17;;;-0.20;99.90;;;;;;5001865;28;20270;-77
2022/03/05 00:22:14;;;;;;;6.83;4.83;;;-0.20;99.90;;;;;;5017041;28;20245;-78
2022/03/05 00:24:40;;;;;;;9.00;5.47;;;-0.10;99.90;;;;;;5015936;28;20188;-78
2022/03/05 00:27:06;;;;;;;9.63;5.70;;;-0.10;99.90;;;;;;5001214;28;20196;-77
2022/03/05 00:29:31;;;;;;;9.70;5.37;;;-0.10;99.90;;;;;;5015461;28;20187;-79
2022/03/05 00:31:57;;;;;;;10.10;5.53;;;-0.10;99.90;;;;;;5000175;28;20813;-76
2022/03/05 00:34:23;;;;;;;10.43;6.13;;;-0.10;99.90;;;;;;5002765;28;20275;-78
2022/03/05 00:36:48;;;;;;;9.37;5.73;;;-0.10;99.90;;;;;;5000032;28;20203;-79
2022/03/05 00:39:14;;;;;;;8.37;5.70;;;-0.20;99.90;;;;;;5000525;28;20629;-79
2022/03/05 00:41:40;;;;;;;8.67;5.50;;;-0.20;99.90;;;;;;4996017;28;20227;-79
2022/03/05 00:44:06;;;;;;;7.53;5.47;;;-0.30;99.90;;;;;;4999591;28;20265;-77
2022/03/05 00:46:31;;;;;;;8.70;5.53;;;-0.20;99.90;;;;;;5014635;28;20317;-79
2022/03/05 00:48:57;;;;;;;9.90;6.23;;;-0.20;99.90;;;;;;5000696;28;20192;-78
2022/03/05 00:51:23;;;;;;;9.90;6.00;;;-0.30;99.90;;;;;;5001250;28;20619;-77
2022/03/05 00:53:48;;;;;;;8.77;5.70;;;-0.30;99.90;;;;;;4998526;28;20198;-76
2022/03/05 00:56:15;;;;;;;9.60;5.53;;;-0.30;99.90;;;;;;4998879;28;20662;-78
2022/03/05 00:58:40;;;;;;;9.30;6.03;;;-0.30;99.90;;;;;;5014527;28;20211;-79
2022/03/05 01:01:06;;;;;;;12.80;6.20;;;-0.40;99.90;;;;;;4999147;28;20214;-78
2022/03/05 01:03:32;;;;;;;9.50;5.43;;;-0.30;99.90;;;;;;5001679;28;20206;-78
2022/03/05 01:05:57;;;;;;;8.83;6.17;;;-0.30;99.90;;;;;;4998915;28;20266;-78
2022/03/05 01:08:23;;;;;;;9.33;5.73;;;-0.30;99.90;;;;;;4997365;28;20595;-79
2022/03/05 01:10:49;;;;;;;9.00;5.63;;;-0.40;99.90;;;;;;5003148;28;20728;-77
2022/03/05 01:13:14;;;;;;;8.57;5.43;;;-0.40;99.90;;;;;;5002742;28;20295;-76
2022/03/05 01:15:41;;;;;;;11.77;6.40;;;-0.50;99.90;;;;;;5001136;28;20278;-76
2022/03/05 01:18:06;;;;;;;9.73;6.37;;;-0.70;99.90;;;;;;5017516;28;20215;-75
2022/03/05 01:20:32;;;;;;;10.50;6.33;;;-0.80;99.90;;;;;;5000991;28;20676;-78
2022/03/05 01:22:57;;;;;;;11.03;6.07;;;-0.90;99.90;;;;;;4999675;28;20196;-77
2022/03/05 01:25:23;;;;;;;11.40;7.00;;;-0.90;99.90;;;;;;5003277;28;20185;-80
2022/03/05 01:27:49;;;;;;;12.00;6.47;;;-1.00;99.90;;;;;;5001448;28;20590;-77
2022/03/05 01:30:14;;;;;;;9.77;6.03;;;-1.10;99.90;;;;;;5017671;28;20342;-75
2022/03/05 01:32:40;;;;;;;10.63;6.13;;;-1.00;99.90;;;;;;5002585;28;20338;-78
2022/03/05 01:35:07;;;;;;;10.07;5.90;;;-1.00;99.90;;;;;;5016931;28;20896;-78
2022/03/05 01:37:32;;;;;;;9.83;6.37;;;-1.10;99.90;;;;;;5016913;28;20216;-78
2022/03/05 01:39:58;;;;;;;11.80;6.10;;;-1.20;99.90;;;;;;5000456;28;20696;-78
2022/03/05 01:42:24;;;;;;;10.30;6.20;;;-1.20;99.90;;;;;;5004329;28;20204;-78
2022/03/05 01:44:50;;;;;;;8.87;6.07;;;-1.30;99.90;;;;;;4999936;28;20758;-77
2022/03/05 01:47:16;;;;;;;10.40;6.00;;;-1.30;99.90;;;;;;5000263;28;20279;-75
2022/03/05 01:49:42;;;;;;;11.33;6.00;;;-1.30;99.90;;;;;;5002562;28;20196;-80
2022/03/05 01:52:08;;;;;;;11.60;6.33;;;-1.40;99.90;;;;;;5000091;28;20874;-77
2022/03/05 01:54:34;;;;;;;14.03;7.07;;;-1.50;99.90;;;;;;4997591;28;20185;-77
2022/03/05 01:57:00;;;;;;;10.67;6.03;;;-1.50;99.90;;;;;;5001122;28;20211;-77
2022/03/05 01:59:26;;;;;;;12.13;6.53;;;-1.60;99.90;;;;;;5014351;28;20211;-78
2022/03/05 02:01:52;;;;;;;12.33;6.63;;;-1.60;99.90;;;;;;5015311;28;20235;-76
2022/03/05 02:04:18;;;;;;;12.43;7.13;;;-1.60;99.90;;;;;;4994285;28;21232;-76
2022/03/05 02:06:43;;;;;;;10.67;6.70;;;-1.60;99.90;;;;;;5011094;28;20192;-77
2022/03/05 02:09:09;;;;;;;10.30;6.23;;;-1.60;99.90;;;;;;4999777;28;20190;-78
2022/03/05 02:11:35;;;;;;;13.07;6.53;;;-1.70;99.90;;;;;;4999599;28;20205;-78
2022/03/05 02:14:00;;;;;;;12.90;7.10;;;-1.70;99.90;;;;;;5000771;28;20194;-77
2022/03/05 02:16:26;;;;;;;10.57;6.50;;;-1.80;99.90;;;;;;5000521;28;20234;-78
2022/03/05 02:18:56;;;;;;;11.43;6.63;;;-1.80;99.90;;;;;;5002004;28;20344;-79
2022/03/05 02:21:26;;;;;;;12.53;7.53;;;-1.90;99.90;;;;;;4999403;28;20227;-79
2022/03/05 02:23:52;;;;;;;9.63;6.53;;;-1.90;99.90;;;;;;5003116;28;20657;-79
2022/03/05 02:26:18;;;;;;;12.00;6.57;;;-1.90;99.90;;;;;;5003177;28;20188;-79
2022/03/05 02:28:44;;;;;;;11.93;6.77;;;-1.90;99.90;;;;;;5003502;28;20539;-78
2022/03/05 02:31:10;;;;;;;10.50;6.70;;;-1.90;99.90;;;;;;5002729;28;20214;-79
2022/03/05 02:33:36;;;;;;;11.70;7.13;;;-1.90;99.90;;;;;;5002499;28;20695;-79
2022/03/05 02:36:03;;;;;;;11.30;6.63;;;-1.90;99.90;;;;;;4998610;28;20630;-79
2022/03/05 02:38:29;;;;;;;10.83;6.93;;;-2.00;99.90;;;;;;5001465;28;20200;-78
2022/03/05 02:40:54;;;;;;;9.80;6.60;;;-2.00;99.90;;;;;;5002657;28;20327;-78
2022/03/05 02:43:23;;;;;;;12.23;7.23;;;-1.90;99.90;;;;;;5000831;28;20181;-78
2022/03/05 02:45:50;;;;;;;12.40;7.77;;;-1.90;99.90;;;;;;4999417;28;20646;-78
2022/03/05 02:48:16;;;;;;;13.00;6.43;;;-2.00;99.90;;;;;;5002039;28;20191;-78
2022/03/05 02:50:44;;;;;;;11.23;7.33;;;-1.90;99.90;;;;;;5002751;28;20698;-76
2022/03/05 02:53:10;;;;;;;10.80;6.67;;;-1.90;99.90;;;;;;5002942;28;20184;-78
2022/03/05 02:55:36;;;;;;;11.17;7.43;;;-1.90;99.90;;;;;;5001374;28;20192;-77
2022/03/05 02:58:03;;;;;;;10.00;6.33;;;-2.00;99.90;;;;;;5000679;28;20302;-77
2022/03/05 03:00:30;;;;;;;11.20;7.00;;;-2.00;99.90;;;;;;5003214;28;20235;-79
2022/03/05 03:02:55;;;;;;;11.80;7.10;;;-2.00;99.90;;;;;;5014578;28;20262;-77
2022/03/05 03:05:21;;;;;;;11.33;6.17;;;-2.10;99.90;;;;;;4999806;28;20259;-77
2022/03/05 03:07:47;;;;;;;9.70;6.10;;;-2.10;99.90;;;;;;5001461;28;20279;-77
2022/03/05 03:10:14;;;;;;;10.70;6.53;;;-2.20;99.90;;;;;;5001266;28;20195;-77
2022/03/05 03:12:40;;;;;;;9.80;6.27;;;-2.30;99.90;;;;;;5000062;28;20183;-78
2022/03/05 03:15:08;;;;;;;9.50;6.17;;;-2.30;99.90;;;;;;4997498;28;20759;-78
2022/03/05 03:17:47;;;;;;;11.33;6.37;;;-2.30;99.90;;;;;;5015115;28;20208;-76
2022/03/05 03:20:16;;;;;;;12.03;6.60;;;-2.30;99.90;;;;;;5000021;28;20172;-80
2022/03/05 03:22:42;;;;;;;11.00;6.57;;;-2.30;99.90;;;;;;4999499;28;20184;-78
2022/03/05 03:25:10;;;;;;;11.00;6.60;;;-2.30;99.90;;;;;;4998185;28;20251;-76
2022/03/05 03:27:35;;;;;;;9.80;6.10;;;-2.40;99.90;;;;;;5013262;28;20654;-77
2022/03/05 03:30:01;;;;;;;11.27;6.67;;;-2.40;99.90;;;;;;4998725;28;20249;-81
2022/03/05 03:32:27;;;;;;;11.27;6.23;;;-2.40;99.90;;;;;;5006189;28;20191;-77
2022/03/05 03:34:52;;;;;;;10.30;6.00;;;-2.40;99.90;;;;;;4996796;28;20189;-78
2022/03/05 03:37:18;;;;;;;12.10;6.13;;;-2.40;99.90;;;;;;4998735;28;20275;-79
2022/03/05 03:39:44;;;;;;;10.33;7.03;;;-2.50;99.90;;;;;;5001262;28;20552;-80
2022/03/05 03:42:09;;;;;;;10.67;6.90;;;-2.50;99.90;;;;;;4998203;28;20208;-78
2022/03/05 03:44:35;;;;;;;10.97;6.57;;;-2.50;99.90;;;;;;4998269;28;20672;-78
2022/03/05 03:47:01;;;;;;;12.07;7.27;;;-2.50;99.90;;;;;;4999967;28;20587;-80
2022/03/05 03:49:27;;;;;;;12.77;6.43;;;-2.50;99.90;;;;;;5000029;28;21042;-78
2022/03/05 03:51:52;;;;;;;11.40;7.00;;;-2.60;99.90;;;;;;4998761;28;20203;-80
2022/03/05 03:54:19;;;;;;;13.13;6.93;;;-2.60;99.90;;;;;;4998381;28;20198;-75
2022/03/05 03:56:44;;;;;;;10.93;6.60;;;-2.50;99.90;;;;;;4998596;28;20179;-76
2022/03/05 03:59:10;;;;;;;9.03;6.10;;;-2.60;99.90;;;;;;5013651;28;20203;-77
2022/03/05 04:01:36;;;;;;;9.23;6.10;;;-2.60;99.90;;;;;;5016641;28;20234;-77
2022/03/05 04:04:02;;;;;;;10.63;6.67;;;-2.60;99.90;;;;;;4998260;28;20208;-77
2022/03/05 04:08:41;;;;;;;7.90;6.13;;;-2.60;99.90;;;;;;4998633;28;20495;-76
2022/03/05 04:09:17;;;;;;;11.73;7.10;;;-2.70;99.90;;;;;;4998846;28;20188;-77
2022/03/05 04:11:43;;;;;;;9.87;6.83;;;-2.70;99.90;;;;;;5017650;28;20270;-77
2022/03/05 04:14:08;;;;;;;10.33;6.53;;;-2.80;99.90;;;;;;5001032;28;20224;-79
2022/03/05 04:16:34;;;;;;;9.77;6.27;;;-2.80;99.90;;;;;;5000947;28;20185;-77
2022/03/05 04:18:59;;;;;;;9.03;6.23;;;-2.80;99.90;;;;;;5000881;28;20612;-77
2022/03/05 04:21:25;;;;;;;8.97;5.83;;;-2.80;99.90;;;;;;4998429;28;20208;-77
2022/03/05 04:23:52;;;;;;;9.90;6.00;;;-2.80;99.90;;;;;;5014246;28;20235;-77
2022/03/05 04:26:18;;;;;;;11.20;6.07;;;-2.80;99.90;;;;;;4997248;28;20242;-77
2022/03/05 04:28:44;;;;;;;9.03;5.57;;;-2.80;99.90;;;;;;5000365;28;20188;-77
2022/03/05 04:31:11;;;;;;;10.13;6.50;;;-2.90;99.90;;;;;;5014752;28;20216;-78
2022/03/05 04:34:40;;;;;;;9.53;6.13;;;-2.90;99.90;;;;;;4990764;28;20311;-79
2022/03/05 04:37:28;;;;;;;10.03;5.70;;;-2.80;99.90;;;;;;5000985;28;20226;-78
2022/03/05 04:40:15;;;;;;;8.80;5.63;;;-2.80;99.90;;;;;;4999076;28;20191;-78
2022/03/05 04:42:42;;;;;;;10.63;5.73;;;-2.80;99.90;;;;;;5001156;28;20192;-81
2022/03/05 04:45:14;;;;;;;8.43;5.57;;;-2.80;99.90;;;;;;5016393;28;20201;-78
2022/03/05 04:48:05;;;;;;;8.77;5.23;;;-2.80;99.90;;;;;;5000180;28;20911;-80
2022/03/05 04:50:34;;;;;;;9.57;5.43;;;-2.80;99.90;;;;;;5014794;28;20239;-79
2022/03/05 04:53:00;;;;;;;10.17;5.70;;;-2.80;99.90;;;;;;5000230;28;20207;-80
2022/03/05 04:55:30;;;;;;;9.47;5.87;;;-2.90;99.90;;;;;;5016037;28;20176;-81
2022/03/05 04:57:59;;;;;;;9.10;5.73;;;-3.00;99.90;;;;;;5001747;28;20678;-79
2022/03/05 05:00:51;;;;;;;8.83;5.20;;;-3.00;99.90;;;;;;5024245;28;20231;-78
2022/03/05 05:03:17;;;;;;;8.37;5.30;;;-3.00;99.90;;;;;;4972724;28;20509;-80
2022/03/05 05:05:44;;;;;;;8.27;5.43;;;-3.10;99.90;;;;;;4999693;28;20272;-80
2022/03/05 05:08:13;;;;;;;5.90;4.80;;;-3.10;99.90;;;;;;5000551;28;20183;-81
2022/03/05 05:10:47;;;;;;;8.33;5.40;;;-3.00;99.90;;;;;;5016776;28;20211;-80
2022/03/05 05:13:26;;;;;;;7.00;4.80;;;-3.00;99.90;;;;;;5002218;28;20195;-80
2022/03/05 05:15:53;;;;;;;8.33;5.20;;;-3.10;99.90;;;;;;5001391;28;20215;-79
2022/03/05 05:21:30;;;;;;;6.60;4.00;;;-3.10;99.90;;;;;;5008714;28;20222;-79
2022/03/05 05:24:00;;;;;;;6.30;4.07;;;-3.20;99.90;;;;;;5008714;28;20200;-78
2022/03/05 05:26:38;;;;;;;6.27;3.50;;;-3.10;99.90;;;;;;4992430;28;20230;-80
2022/03/05 05:32:10;;;;;;;6.53;3.77;;;-3.00;99.90;;;;;;4995054;28;20274;-79
2022/03/05 05:35:15;;;;;;;5.97;4.17;;;-3.00;99.90;;;;;;5008493;28;20201;-81
2022/03/05 05:37:42;;;;;;;6.00;3.90;;;-3.20;99.90;;;;;;5008763;28;20199;-79
2022/03/05 05:40:14;;;;;;;5.40;3.87;;;-3.20;99.90;;;;;;5005428;28;20279;-81
2022/03/05 05:42:42;;;;;;;6.23;4.17;;;-3.20;99.90;;;;;;4968167;28;20195;-80
2022/03/05 05:45:12;;;;;;;7.13;4.57;;;-3.30;99.90;;;;;;4969134;28;20192;-80
2022/03/05 05:47:49;;;;;;;4.97;3.70;;;-3.30;99.90;;;;;;4993034;28;20671;-79
2022/03/05 05:50:45;;;;;;;5.57;4.30;;;-3.30;99.90;;;;;;4992553;28;20184;-78
2022/03/05 05:53:22;;;;;;;5.17;4.00;;;-3.30;99.90;;;;;;4983633;28;20196;-78
2022/03/05 05:56:09;;;;;;;6.73;4.00;;;-3.30;99.90;;;;;;5002522;28;20200;-78
2022/03/05 05:58:36;;;;;;;5.60;3.73;;;-3.30;99.90;;;;;;5018723;28;20219;-79
2022/03/05 06:01:06;;;;;;;5.87;4.07;;;-3.40;99.90;;;;;;5001861;28;20203;-79
2022/03/05 06:03:44;;;;;;;6.17;4.20;;;-3.30;99.90;;;;;;5001859;28;20220;-80
2022/03/05 06:06:11;;;;;;;6.73;4.27;;;-3.30;99.90;;;;;;5019294;28;20202;-78
2022/03/05 06:08:37;;;;;;;4.47;4.00;;;-3.20;99.90;;;;;;5005103;28;20250;-79
2022/03/05 06:11:03;;;;;;;6.37;4.33;;;-3.20;99.90;;;;;;5004177;28;20203;-79
2022/03/05 06:13:29;;;;;;;6.83;3.80;;;-3.20;99.90;;;;;;5004126;28;20175;-79
2022/03/05 06:15:55;;;;;;;7.93;5.30;;;-3.20;99.90;;;;;;5019069;28;20202;-79
2022/03/05 06:18:21;;;;;;;7.00;4.47;;;-3.10;99.90;;;;;;5002607;28;20212;-79
2022/03/05 06:21:11;;;;;;;5.13;3.80;;;-3.00;99.90;;;;;;5004557;28;20208;-79
2022/03/05 06:23:57;;;;;;;5.03;3.87;;;-3.00;99.90;;;;;;5000393;28;20191;-79
2022/03/05 06:26:28;;;;;;;8.07;4.73;;;-2.90;99.90;;;;;;5001463;28;20200;-79
2022/03/05 06:28:54;;;;;;;6.07;4.10;;;-2.90;99.90;;;;;;5009829;28;20183;-79
2022/03/05 06:31:24;;;;;;;5.80;3.93;;;-2.90;99.90;;;;;;5019254;28;20234;-80
2022/03/05 06:34:02;;;;;;;5.90;3.90;;;-2.80;99.90;;;;;;5008436;28;20317;-80
2022/03/05 06:36:30;;;;;;;5.87;4.30;;;-2.80;99.90;;;;;;5001693;28;20282;-81
2022/03/05 06:39:14;;;;;;;5.93;4.00;;;-2.70;99.90;;;;;;5016199;28;20641;-81
2022/03/05 06:41:41;;;;;;;5.10;3.90;;;-2.70;99.90;;;;;;5004457;28;20294;-80
2022/03/05 06:44:57;;;;;;;5.43;4.07;;;-2.70;99.90;;;;;;5003422;28;20722;-81
2022/03/05 06:47:47;;;;;;;7.50;4.23;;;-2.60;99.90;;;;;;5001992;28;20192;-81
2022/03/05 06:50:16;;;;;;;6.60;4.13;;;-2.60;99.90;;;;;;5017736;28;20231;-79
2022/03/05 06:53:39;;;;;;;8.23;4.20;;;-2.50;99.90;;;;;;4998606;28;20682;-79
2022/03/05 06:56:11;;;;;;;4.30;3.30;;;-2.40;99.90;;;;;;5012622;28;20206;-79
2022/03/05 06:58:50;;;;;;;5.30;4.00;;;-2.10;99.90;;;;;;5010972;28;20223;-78
2022/03/05 07:01:22;;;;;;;7.37;4.10;;;-1.90;99.90;;;;;;5004521;28;20318;-80
2022/03/05 07:04:28;;;;;;;7.37;4.10;;;-1.80;99.90;;;;;;4991313;28;20223;-78
2022/03/05 07:07:16;;;;;;;6.83;4.23;;;-1.60;99.90;;;;;;5001555;28;20192;-79
2022/03/05 07:09:48;;;;;;;6.10;4.57;;;-1.50;99.90;;;;;;5006287;28;20200;-79
2022/03/05 07:12:30;;;;;;;8.83;5.20;;;-1.30;99.90;;;;;;4996428;28;20219;-79
2022/03/05 07:14:58;;;;;;;6.53;5.27;;;-1.30;99.90;;;;;;5009114;28;20259;-80
2022/03/05 07:17:24;;;;;;;9.73;7.10;;;-1.10;99.90;;;;;;5007940;28;20242;-81
2022/03/05 07:20:22;;;;;;;10.73;7.13;;;-1.10;99.90;;;;;;5024955;28;20188;-78
2022/03/05 07:22:48;;;;;;;8.67;5.37;;;-1.00;99.90;;;;;;5011008;28;20202;-79
2022/03/05 07:25:19;;;;;;;6.87;5.20;;;-0.90;99.90;;;;;;5011390;28;20172;-79
2022/03/05 07:27:53;;;;;;;8.27;6.20;;;-0.80;99.90;;;;;;5019396;28;20192;-79
2022/03/05 07:30:19;;;;;;;8.90;6.07;;;-0.70;99.90;;;;;;5019247;28;20203;-80
2022/03/05 07:32:46;;;;;;;6.53;5.40;;;-0.50;99.90;;;;;;5018495;28;20207;-79
2022/03/05 07:35:12;;;;;;;7.27;6.27;;;-0.50;99.90;;;;;;5026431;28;20204;-79
2022/03/05 07:37:38;;;;;;;7.67;5.17;;;-0.30;99.90;;;;;;5013123;28;20319;-79
2022/03/05 07:40:05;;;;;;;10.73;8.47;;;-0.20;99.90;;;;;;5017360;28;20674;-80
2022/03/05 07:42:31;;;;;;;8.43;5.77;;;-0.10;99.90;;;;;;5007856;28;20191;-79
2022/03/05 07:44:57;;;;;;;6.83;5.30;;;0.00;99.90;;;;;;4998783;28;20184;-79
2022/03/05 07:47:24;;;;;;;4.97;4.43;;;0.10;99.90;;;;;;5000333;28;20203;-80
2022/03/05 07:49:50;;;;;;;8.17;6.13;;;0.20;99.90;;;;;;4998142;28;20188;-80
2022/03/05 07:52:15;;;;;;;8.30;5.20;;;0.40;99.90;;;;;;4988938;28;20275;-79
2022/03/05 07:54:41;;;;;;;7.70;4.50;;;0.50;99.90;;;;;;5015342;28;20184;-79
2022/03/05 07:57:08;;;;;;;6.97;4.73;;;0.50;99.90;;;;;;5014596;28;20187;-79
2022/03/05 07:59:37;;;;;;;6.83;5.60;;;0.60;99.90;;;;;;4999633;28;20242;-79
2022/03/05 08:02:15;;;;;;;6.80;4.80;;;0.80;99.90;;;;;;4997097;28;20298;-78
2022/03/05 08:04:47;;;;;;;6.53;5.00;;;0.90;99.90;;;;;;5005575;28;20206;-77
2022/03/05 08:07:16;;;;;;;5.93;4.40;;;0.90;99.90;;;;;;4998760;28;20181;-80
2022/03/05 08:09:43;;;;;;;6.50;3.60;;;1.00;99.90;;;;;;5006111;28;20659;-80
2022/03/05 08:12:13;;;;;;;5.37;3.57;;;1.10;99.90;;;;;;5014772;28;20215;-77
2022/03/05 08:14:42;;;;;;;5.47;4.37;;;1.20;99.90;;;;;;5000277;28;20200;-78
2022/03/05 08:17:24;;;;;;;6.57;4.13;;;1.30;99.90;;;;;;4998154;28;21252;-78
2022/03/05 08:19:52;;;;;;;5.57;4.43;;;1.50;99.90;;;;;;4998479;28;20272;-79
2022/03/05 08:22:20;;;;;;;4.97;3.80;;;1.60;99.90;;;;;;5014765;28;20208;-78
2022/03/05 08:24:47;;;;;;;3.80;2.77;;;1.60;99.90;;;;;;5005232;28;20195;-79
2022/03/05 08:27:21;;;;;;;3.50;2.70;;;1.80;99.90;;;;;;4998741;28;20177;-79
2022/03/05 08:29:48;;;;;;;6.17;3.10;;;1.90;99.90;;;;;;4997920;28;20196;-79
2022/03/05 08:32:45;;;;;;;7.23;3.50;;;2.00;99.90;;;;;;5003954;28;20226;-78
2022/03/05 08:35:21;;;;;;;4.20;2.80;;;2.20;99.90;;;;;;5003855;28;20790;-78
2022/03/05 08:37:47;;;;;;;4.90;3.40;;;2.20;99.90;;;;;;4998202;28;20827;-78
2022/03/05 08:40:15;;;;;;;7.30;3.17;;;2.20;99.90;;;;;;4997356;28;20179;-77
2022/03/05 08:42:41;;;;;;;7.90;3.80;;;2.20;99.90;;;;;;4997735;28;20176;-77
2022/03/05 08:45:08;;;;;;;4.90;3.80;;;2.30;99.90;;;;;;4997785;28;20198;-79
2022/03/05 08:47:34;;;;;;;4.23;3.10;;;2.50;99.90;;;;;;5005067;28;20774;-79
2022/03/05 08:50:01;;;;;;;4.60;3.00;;;2.60;99.90;;;;;;4993944;28;20225;-78
2022/03/05 08:52:29;;;;;;;3.10;2.80;;;2.60;99.90;;;;;;4998026;28;20245;-79
2022/03/05 08:54:55;;;;;;;5.37;3.60;;;2.60;99.90;;;;;;5008863;28;20192;-80
2022/03/05 08:57:20;;;;;;;3.77;3.37;;;2.70;99.90;;;;;;5012911;28;20176;-79
2022/03/05 08:59:46;;;;;;;5.57;2.97;;;2.80;99.90;;;;;;5013576;28;20180;-80
2022/03/05 09:02:12;;;;;;;5.20;3.40;;;2.80;99.90;;;;;;5005692;28;20209;-79
2022/03/05 09:04:37;;;;;;;3.40;2.70;;;2.90;99.90;;;;;;4999026;28;20207;-79
2022/03/05 09:07:03;;;;;;;5.17;2.80;;;2.90;99.90;;;;;;4997548;28;20246;-79
2022/03/05 09:09:29;;;;;;;4.67;3.13;;;3.00;99.90;;;;;;4995532;28;20251;-78
2022/03/05 09:11:55;;;;;;;5.17;3.30;;;3.10;99.90;;;;;;5013299;28;20204;-79
2022/03/05 09:14:21;;;;;;;5.10;3.30;;;3.20;99.90;;;;;;4997306;28;20179;-78
2022/03/05 09:16:47;;;;;;;3.73;3.13;;;3.30;99.90;;;;;;4998463;28;20187;-79
2022/03/05 09:19:13;;;;;;;3.50;2.87;;;3.40;99.90;;;;;;5011014;28;20665;-78
2022/03/05 09:21:39;;;;;;;6.43;3.33;;;3.60;99.90;;;;;;4995875;28;20211;-78
2022/03/05 09:24:07;;;;;;;6.60;3.80;;;3.60;99.90;;;;;;4997656;28;20188;-79
2022/03/05 09:26:42;;;;;;;3.93;3.23;;;3.70;99.90;;;;;;4997236;28;20180;-78
2022/03/05 09:29:09;;;;;;;4.20;3.30;;;3.70;99.90;;;;;;4997490;28;20198;-79
2022/03/05 09:31:35;;;;;;;5.23;3.43;;;3.70;99.90;;;;;;5000380;28;20200;-78
2022/03/05 09:34:01;;;;;;;5.13;3.80;;;3.70;99.90;;;;;;5016077;28;20302;-79
2022/03/05 09:36:31;;;;;;;5.80;3.70;;;3.70;99.90;;;;;;5014409;28;20184;-79
2022/03/05 09:38:57;;;;;;;5.20;3.73;;;3.80;99.90;;;;;;5002343;28;20335;-79
2022/03/05 09:41:23;;;;;;;5.47;4.07;;;3.90;99.90;;;;;;5016654;28;20219;-78
2022/03/05 09:43:50;;;;;;;7.40;4.20;;;4.00;99.90;;;;;;4982547;28;20224;-79
2022/03/05 09:46:22;;;;;;;7.20;4.27;;;4.20;99.90;;;;;;5002732;28;20188;-80
2022/03/05 09:48:53;;;;;;;5.03;3.97;;;4.30;99.90;;;;;;5015463;28;20191;-80
2022/03/05 09:51:22;;;;;;;5.10;3.60;;;4.40;99.90;;;;;;4999934;28;20207;-80
2022/03/05 09:53:51;;;;;;;4.90;3.70;;;4.40;99.90;;;;;;5007614;28;20282;-79
2022/03/05 09:56:16;;;;;;;7.37;3.77;;;4.40;99.90;;;;;;5000394;28;20250;-81
2022/03/05 09:58:42;;;;;;;4.93;3.50;;;4.40;99.90;;;;;;5019429;28;20310;-78
2022/03/05 10:01:08;;;;;;;5.93;3.53;;;4.40;99.90;;;;;;5018574;28;20204;-81
2022/03/05 10:03:53;;;;;;;5.67;3.97;;;4.60;99.90;;;;;;5018657;28;20186;-81
2022/03/05 10:06:22;;;;;;;5.03;4.10;;;4.70;99.90;;;;;;5002533;28;20196;-79
2022/03/05 10:08:51;;;;;;;6.60;4.03;;;4.80;99.90;;;;;;5002235;28;20189;-81
2022/03/05 10:11:17;;;;;;;8.63;3.60;;;5.00;99.90;;;;;;5010632;28;20222;-79
2022/03/05 10:13:43;;;;;;;6.17;3.73;;;5.10;99.90;;;;;;5019380;28;20187;-80
2022/03/05 10:16:31;;;;;;;5.73;3.60;;;5.10;99.90;;;;;;5015830;28;20188;-79
2022/03/05 10:18:58;;;;;;;11.70;9.30;;;5.00;99.90;;;;;;5001205;28;20222;-79
2022/03/05 10:21:29;;;;;;;9.23;6.30;;;5.00;99.90;;;;;;5008954;28;20196;-81
2022/03/05 10:24:09;;;;;;;7.23;5.70;;;5.00;99.90;;;;;;4999524;28;20191;-78
2022/03/05 10:26:55;;;;;;;5.93;4.00;;;5.00;99.90;;;;;;4998590;28;20265;-78
2022/03/05 10:29:23;;;;;;;10.27;6.43;;;5.10;99.90;;;;;;5000421;28;20179;-78
2022/03/05 10:32:09;;;;;;;5.87;4.03;;;5.20;99.90;;;;;;5013793;28;20203;-81
2022/03/05 10:34:56;;;;;;;10.57;4.30;;;5.20;99.90;;;;;;5001978;28;20169;-79
2022/03/05 10:37:23;;;;;;;10.63;5.00;;;5.30;99.90;;;;;;5001366;28;20657;-79
2022/03/05 10:39:51;;;;;;;7.70;4.37;;;5.20;99.90;;;;;;5000988;28;20187;-79
2022/03/05 10:42:21;;;;;;;11.43;5.03;;;5.20;99.90;;;;;;5016863;28;20211;-79
2022/03/05 10:45:18;;;;;;;6.53;4.57;;;5.30;99.90;;;;;;5000617;28;20211;-79
2022/03/05 10:47:46;;;;;;;11.63;7.33;;;5.30;99.90;;;;;;5000939;28;20203;-79
2022/03/05 10:50:22;;;;;;;5.53;4.20;;;5.30;99.90;;;;;;4999934;28;20186;-79
2022/03/05 10:52:53;;;;;;;4.60;3.97;;;5.30;99.90;;;;;;5017790;28;20184;-81
2022/03/05 10:55:21;;;;;;;5.00;3.90;;;5.40;99.90;;;;;;5013506;28;20260;-78
2022/03/05 10:58:03;;;;;;;8.23;5.10;;;5.40;99.90;;;;;;5001411;28;20207;-79
2022/03/05 11:00:31;;;;;;;7.77;4.47;;;5.30;99.90;;;;;;5006754;28;20293;-78
2022/03/05 11:03:00;;;;;;;6.83;4.33;;;5.30;99.90;;;;;;5015282;28;20292;-78
2022/03/05 11:05:26;;;;;;;8.50;4.83;;;5.30;99.90;;;;;;5016793;28;20199;-78
2022/03/05 11:07:54;;;;;;;10.83;6.03;;;5.40;99.90;;;;;;5001769;28;20189;-78
2022/03/05 11:10:25;;;;;;;6.13;4.83;;;5.50;99.90;;;;;;5000499;28;20215;-78
2022/03/05 11:12:52;;;;;;;12.67;6.43;;;5.60;99.90;;;;;;5008318;28;20242;-79
2022/03/05 11:15:22;;;;;;;5.57;3.90;;;5.80;99.90;;;;;;5001674;28;20185;-79
2022/03/05 11:17:48;;;;;;;6.57;3.90;;;5.90;99.90;;;;;;5001449;28;20201;-79
2022/03/05 11:20:14;;;;;;;6.87;4.93;;;5.90;99.90;;;;;;5002596;28;20194;-79
2022/03/05 11:22:46;;;;;;;7.07;4.67;;;6.10;99.90;;;;;;5010008;28;20181;-79
2022/03/05 11:25:20;;;;;;;6.33;3.90;;;5.90;99.90;;;;;;5018447;28;20296;-79
2022/03/05 11:28:05;;;;;;;4.50;3.63;;;6.00;99.90;;;;;;5003208;28;20179;-78
2022/03/05 11:30:45;;;;;;;6.90;4.23;;;6.20;99.90;;;;;;5003246;28;20211;-79
2022/03/05 11:33:21;;;;;;;7.13;4.93;;;6.00;99.90;;;;;;5019502;28;20191;-77
2022/03/05 11:35:48;;;;;;;5.43;3.77;;;5.90;99.90;;;;;;5025749;28;20183;-81
2022/03/05 11:38:39;;;;;;;5.03;3.40;;;5.90;99.90;;;;;;5030071;28;20262;-77
2022/03/05 11:41:21;;;;;;;6.10;4.33;;;5.90;99.90;;;;;;5030079;28;20772;-77
2022/03/05 11:43:48;;;;;;;4.10;3.40;;;6.20;99.90;;;;;;5022669;28;20187;-79
2022/03/05 11:46:28;;;;;;;4.73;3.23;;;6.20;99.90;;;;;;4999455;28;20175;-79
2022/03/05 11:49:13;;;;;;;5.50;3.73;;;6.30;99.90;;;;;;4999111;28;20552;-80
2022/03/05 11:51:58;;;;;;;5.07;3.23;;;6.50;99.90;;;;;;5014112;28;20207;-80
2022/03/05 11:54:25;;;;;;;3.90;3.13;;;6.60;99.90;;;;;;5005422;28;20270;-78
2022/03/05 11:57:17;;;;;;;11.17;7.00;;;6.60;99.90;;;;;;5015361;28;20184;-78
2022/03/05 12:00:03;;;;;;;7.97;5.17;;;6.70;99.90;;;;;;5014617;28;20184;-81
2022/03/05 12:02:50;;;;;;;5.07;3.97;;;7.00;99.90;;;;;;4999536;28;20188;-80
2022/03/05 12:05:37;;;;;;;4.40;4.00;;;7.00;99.90;;;;;;4999552;28;20195;-78
2022/03/05 12:08:13;;;;;;;4.77;3.87;;;7.00;99.90;;;;;;4998754;28;20322;-80
2022/03/05 12:10:39;;;;;;;5.23;3.70;;;7.10;99.90;;;;;;5006257;28;20204;-78
2022/03/05 12:13:10;;;;;;;6.30;4.03;;;7.20;99.90;;;;;;5015066;28;20179;-80
2022/03/05 12:15:41;;;;;;;4.93;3.80;;;7.20;99.90;;;;;;5015089;28;20283;-80
2022/03/05 12:18:14;;;;;;;4.47;3.93;;;7.10;99.90;;;;;;5005776;28;20203;-81
2022/03/05 12:20:43;;;;;;;3.93;3.53;;;6.90;99.90;;;;;;4998959;28;20215;-80
2022/03/05 12:23:15;;;;;;;5.03;3.50;;;6.80;99.90;;;;;;5000410;28;20281;-80
2022/03/05 12:25:44;;;;;;;3.97;3.47;;;6.60;99.90;;;;;;4998671;28;20658;-80
2022/03/05 12:28:14;;;;;;;4.77;3.73;;;6.30;99.90;;;;;;5015306;28;20579;-80
2022/03/05 12:30:42;;;;;;;4.43;4.03;;;6.40;99.90;;;;;;4998995;28;20298;-80
2022/03/05 12:33:10;;;;;;;4.37;3.87;;;5.90;99.90;;;;;;4999084;28;20192;-80
2022/03/05 12:35:37;;;;;;;5.80;4.40;;;5.90;99.90;;;;;;4999075;28;20192;-80
2022/03/05 12:38:04;;;;;;;5.27;4.10;;;5.90;99.90;;;;;;4997855;28;20242;-80
2022/03/05 12:40:31;;;;;;;5.70;4.20;;;6.00;99.90;;;;;;4999868;28;20203;-78
2022/03/05 12:42:58;;;;;;;6.50;4.27;;;6.10;99.90;;;;;;5006011;28;20223;-81
2022/03/05 12:45:32;;;;;;;6.57;4.27;;;6.20;99.90;;;;;;5004586;28;20486;-79
2022/03/05 12:48:07;;;;;;;4.67;4.17;;;6.30;99.90;;;;;;4997781;28;20190;-79
2022/03/05 12:50:36;;;;;;;3.83;3.47;;;6.40;99.90;;;;;;5005816;28;20776;-79
2022/03/05 12:53:08;;;;;;;5.20;4.00;;;6.40;99.90;;;;;;5015133;28;20183;-79
2022/03/05 12:55:41;;;;;;;4.73;3.63;;;6.50;99.90;;;;;;4995134;28;20534;-79
2022/03/05 12:58:12;;;;;;;5.90;4.23;;;6.40;99.90;;;;;;5013045;28;20204;-78
2022/03/05 13:00:40;;;;;;;4.93;3.50;;;6.30;99.90;;;;;;4997916;28;20200;-79
2022/03/05 13:03:06;;;;;;;4.30;3.90;;;6.40;99.90;;;;;;5012456;28;20176;-78
2022/03/05 13:05:32;;;;;;;4.77;4.10;;;6.50;99.90;;;;;;5015273;28;20192;-78
2022/03/05 13:07:59;;;;;;;5.13;4.07;;;6.50;99.90;;;;;;5019771;28;20245;-79
2022/03/05 13:10:25;;;;;;;7.90;5.17;;;6.70;99.90;;;;;;5020505;28;20242;-78